Time;durP1;ratioP1;P1;durP2;ratioP2;P2;SDS_P1;SDS_P2;PMS_P1;PMS_P2;Temp;Humidity;BMP_temperature;BMP_pressure;BME280_temperature;BME280_humidity;BME280_pressure;Samples;Min_cycle;Max_cycle;Signal;HPM_P1;HPM_P2
2024/01/26 00:01:45;;;;;;;81.55;28.63;;;9.00;99.90;;;;;;5008634;28;20048;-78
2024/01/26 00:04:10;;;;;;;68.45;26.95;;;9.00;99.90;;;;;;4996593;28;20089;-79
2024/01/26 00:06:36;;;;;;;76.20;27.67;;;9.00;99.90;;;;;;5004169;28;20037;-79
2024/01/26 00:09:09;;;;;;;69.30;27.40;;;9.00;99.90;;;;;;5006785;28;20041;-79
2024/01/26 00:11:36;;;;;;;74.65;28.00;;;9.00;99.90;;;;;;5007680;28;20037;-79
2024/01/26 00:14:02;;;;;;;71.05;27.92;;;9.10;99.90;;;;;;5002487;28;20569;-79
2024/01/26 00:16:27;;;;;;;71.68;27.02;;;9.10;99.90;;;;;;5008555;28;20041;-79
2024/01/26 00:18:53;;;;;;;74.97;28.60;;;9.10;99.90;;;;;;5005579;28;20034;-78
2024/01/26 00:21:18;;;;;;;76.15;28.63;;;9.10;99.90;;;;;;4992253;28;20041;-79
2024/01/26 00:23:44;;;;;;;67.85;27.65;;;9.10;99.90;;;;;;5003124;28;20411;-79
2024/01/26 00:26:12;;;;;;;68.00;27.42;;;9.10;99.90;;;;;;5007814;28;20505;-79
2024/01/26 00:28:38;;;;;;;67.63;27.50;;;9.10;99.90;;;;;;5007554;28;20057;-79
2024/01/26 00:31:03;;;;;;;72.63;26.50;;;9.10;99.90;;;;;;4999020;28;20503;-79
2024/01/26 00:33:29;;;;;;;62.80;25.95;;;9.10;99.90;;;;;;4996243;28;20454;-79
2024/01/26 00:35:54;;;;;;;61.13;26.92;;;9.10;99.90;;;;;;5001867;28;20454;-78
2024/01/26 00:38:21;;;;;;;64.40;25.75;;;9.20;99.90;;;;;;5006825;28;20057;-79
2024/01/26 00:40:47;;;;;;;57.42;24.67;;;9.20;99.90;;;;;;5001510;28;20419;-79
2024/01/26 00:43:13;;;;;;;58.13;25.55;;;9.20;99.90;;;;;;5002392;28;20042;-80
2024/01/26 00:45:39;;;;;;;61.58;26.05;;;9.20;99.90;;;;;;5009465;28;20057;-79
2024/01/26 00:48:05;;;;;;;56.88;25.63;;;9.20;99.90;;;;;;5011575;28;20073;-79
2024/01/26 00:50:31;;;;;;;57.55;25.10;;;9.20;99.90;;;;;;4992291;28;20038;-79
2024/01/26 00:52:57;;;;;;;56.85;24.77;;;9.30;99.90;;;;;;5003360;28;20100;-78
2024/01/26 00:55:23;;;;;;;59.13;25.58;;;9.30;99.90;;;;;;4993008;28;20125;-79
2024/01/26 00:57:48;;;;;;;56.85;25.40;;;9.30;99.90;;;;;;5011327;28;20125;-79
2024/01/26 01:00:15;;;;;;;50.53;24.35;;;9.30;99.90;;;;;;5011805;28;20038;-79
2024/01/26 01:02:40;;;;;;;52.65;24.52;;;9.40;99.90;;;;;;5011420;28;20069;-79
2024/01/26 01:05:06;;;;;;;58.80;25.77;;;9.30;99.90;;;;;;5002895;28;20084;-79
2024/01/26 01:07:32;;;;;;;57.38;25.23;;;9.30;99.90;;;;;;5001037;28;20034;-79
2024/01/26 01:09:58;;;;;;;52.08;24.10;;;9.30;99.90;;;;;;5002535;28;20045;-79
2024/01/26 01:12:23;;;;;;;53.45;24.90;;;9.30;99.90;;;;;;5010369;28;20029;-79
2024/01/26 01:14:49;;;;;;;53.53;24.35;;;9.40;99.90;;;;;;5004673;28;20034;-79
2024/01/26 01:17:15;;;;;;;49.08;23.85;;;9.40;99.90;;;;;;5010170;28;20081;-79
2024/01/26 01:19:40;;;;;;;55.58;24.92;;;9.40;99.90;;;;;;5003664;28;20120;-78
2024/01/26 01:22:07;;;;;;;44.28;23.38;;;9.40;99.90;;;;;;5011892;28;20050;-79
2024/01/26 01:24:32;;;;;;;45.70;23.17;;;9.40;99.90;;;;;;5002448;28;20057;-79
2024/01/26 01:26:58;;;;;;;47.40;22.83;;;9.40;99.90;;;;;;5005411;28;20105;-79
2024/01/26 01:29:23;;;;;;;42.33;23.10;;;9.50;99.90;;;;;;5008029;28;20514;-79
2024/01/26 01:31:49;;;;;;;44.15;23.25;;;9.50;99.90;;;;;;5002897;28;20557;-79
2024/01/26 01:34:15;;;;;;;45.40;22.52;;;9.50;99.90;;;;;;5003518;28;20550;-78
2024/01/26 01:36:40;;;;;;;42.95;21.95;;;9.50;99.90;;;;;;5005712;28;20085;-79
2024/01/26 01:39:07;;;;;;;40.35;21.40;;;9.70;99.90;;;;;;5004475;28;20556;-79
2024/01/26 01:41:33;;;;;;;41.30;21.05;;;9.50;99.90;;;;;;5004192;28;20042;-79
2024/01/26 01:43:59;;;;;;;38.67;20.42;;;9.50;99.90;;;;;;5004794;28;20535;-79
2024/01/26 01:46:25;;;;;;;37.97;20.58;;;10.20;99.90;;;;;;5003497;28;20057;-79
2024/01/26 01:48:51;;;;;;;39.38;21.00;;;9.50;99.90;;;;;;5000970;28;20092;-79
2024/01/26 01:51:17;;;;;;;39.97;20.17;;;9.50;99.90;;;;;;5005495;28;20049;-79
2024/01/26 01:53:43;;;;;;;33.40;19.00;;;9.50;99.90;;;;;;5006342;28;20049;-79
2024/01/26 01:56:12;;;;;;;36.33;19.48;;;9.50;99.90;;;;;;5004539;28;20542;-79
2024/01/26 01:58:40;;;;;;;34.17;18.83;;;9.50;99.90;;;;;;5009045;28;20046;-79
2024/01/26 02:01:05;;;;;;;36.28;18.80;;;9.50;99.90;;;;;;5008380;28;20041;-79
2024/01/26 02:03:31;;;;;;;32.35;18.17;;;9.50;99.90;;;;;;5007658;28;20041;-79
2024/01/26 02:05:57;;;;;;;32.83;18.25;;;9.60;99.90;;;;;;5005005;28;20054;-79
2024/01/26 02:08:23;;;;;;;32.92;18.25;;;9.60;99.90;;;;;;5007405;28;20152;-80
2024/01/26 02:10:48;;;;;;;30.27;17.65;;;9.60;99.90;;;;;;5010925;28;20053;-79
2024/01/26 02:13:14;;;;;;;29.40;17.70;;;9.60;99.90;;;;;;5002087;28;21682;-80
2024/01/26 02:15:39;;;;;;;29.35;17.40;;;9.60;99.90;;;;;;5005702;28;20042;-79
2024/01/26 02:18:05;;;;;;;30.02;18.13;;;9.60;99.90;;;;;;5002109;28;20042;-79
2024/01/26 02:20:31;;;;;;;31.33;18.92;;;9.60;99.90;;;;;;5005814;28;20057;-79
2024/01/26 02:22:57;;;;;;;32.85;17.65;;;9.60;99.90;;;;;;5005165;28;20499;-79
2024/01/26 02:25:23;;;;;;;31.30;17.38;;;9.60;99.90;;;;;;5004630;28;20100;-79
2024/01/26 02:27:52;;;;;;;28.00;17.17;;;9.70;99.90;;;;;;4997193;28;20052;-79
2024/01/26 02:30:17;;;;;;;29.58;17.23;;;9.70;99.90;;;;;;4998846;28;20125;-79
2024/01/26 02:32:45;;;;;;;29.88;17.98;;;9.70;99.90;;;;;;5005112;28;20129;-79
2024/01/26 02:35:11;;;;;;;29.33;17.40;;;9.70;99.90;;;;;;5006392;28;20108;-79
2024/01/26 02:37:37;;;;;;;27.23;17.60;;;9.70;99.90;;;;;;5003655;28;20507;-79
2024/01/26 02:40:02;;;;;;;27.60;17.75;;;9.70;99.90;;;;;;5009034;28;20046;-79
2024/01/26 02:42:28;;;;;;;30.58;17.80;;;9.70;99.90;;;;;;5002805;28;20594;-79
2024/01/26 02:44:54;;;;;;;30.60;18.92;;;9.70;99.90;;;;;;5003272;28;20042;-79
2024/01/26 02:47:19;;;;;;;28.90;18.35;;;9.70;99.90;;;;;;5012206;28;20529;-80
2024/01/26 02:49:45;;;;;;;28.92;18.90;;;9.70;99.90;;;;;;5010147;28;20038;-79
2024/01/26 02:52:10;;;;;;;30.25;18.98;;;9.70;99.90;;;;;;5010144;28;20125;-79
2024/01/26 02:54:36;;;;;;;29.00;19.23;;;9.70;99.90;;;;;;5007896;28;20080;-79
2024/01/26 02:57:01;;;;;;;29.13;18.73;;;9.70;99.90;;;;;;4993657;28;20054;-79
2024/01/26 02:59:27;;;;;;;30.67;18.20;;;9.70;99.90;;;;;;5007086;28;20034;-79
2024/01/26 03:01:52;;;;;;;27.52;16.90;;;9.70;99.90;;;;;;5004522;28;20104;-80
2024/01/26 03:04:19;;;;;;;27.70;18.05;;;9.70;99.90;;;;;;5003474;28;20038;-79
2024/01/26 03:06:45;;;;;;;28.83;18.23;;;9.70;99.90;;;;;;5005140;28;20589;-79
2024/01/26 03:09:11;;;;;;;28.10;18.50;;;9.70;99.90;;;;;;5012149;28;20041;-79
2024/01/26 03:11:39;;;;;;;27.35;17.90;;;9.70;99.90;;;;;;5011461;28;20046;-79
2024/01/26 03:14:08;;;;;;;30.70;18.80;;;9.70;99.90;;;;;;5012742;28;20073;-79
2024/01/26 03:16:34;;;;;;;30.38;18.63;;;9.70;99.90;;;;;;5006009;28;20048;-79
2024/01/26 03:19:00;;;;;;;30.10;18.65;;;9.70;99.90;;;;;;5009512;28;20042;-79
2024/01/26 03:21:26;;;;;;;30.33;18.27;;;9.70;99.90;;;;;;5007058;28;20041;-79
2024/01/26 03:23:51;;;;;;;25.77;16.33;;;9.70;99.90;;;;;;5008933;28;20093;-79
2024/01/26 03:26:17;;;;;;;28.77;17.08;;;9.70;99.90;;;;;;5010749;28;20156;-79
2024/01/26 03:28:42;;;;;;;28.75;17.77;;;9.70;99.90;;;;;;5012763;28;20037;-79
2024/01/26 03:31:08;;;;;;;28.27;17.38;;;9.70;99.90;;;;;;5003229;28;20573;-79
2024/01/26 03:33:34;;;;;;;30.17;17.85;;;9.70;99.90;;;;;;5003975;28;20129;-79
2024/01/26 03:35:59;;;;;;;27.05;17.60;;;9.70;99.90;;;;;;5012410;28;20100;-79
2024/01/26 03:38:25;;;;;;;31.33;18.02;;;9.70;99.90;;;;;;5004910;28;20052;-79
2024/01/26 03:40:50;;;;;;;28.48;17.65;;;9.70;99.90;;;;;;5010651;28;20041;-79
2024/01/26 03:43:16;;;;;;;27.23;17.65;;;9.80;99.90;;;;;;5003306;28;20054;-79
2024/01/26 03:45:41;;;;;;;32.90;17.85;;;9.80;99.90;;;;;;5007967;28;20030;-79
2024/01/26 03:48:07;;;;;;;29.20;17.65;;;9.70;99.90;;;;;;5006817;28;20085;-79
2024/01/26 03:50:33;;;;;;;32.00;18.83;;;9.80;99.90;;;;;;5003672;28;20057;-79
2024/01/26 03:52:59;;;;;;;28.88;17.67;;;9.80;99.90;;;;;;4995313;28;20086;-79
2024/01/26 03:55:24;;;;;;;30.05;17.08;;;9.80;99.90;;;;;;5000483;28;20549;-79
2024/01/26 03:57:50;;;;;;;29.42;17.27;;;9.80;99.90;;;;;;5004483;28;20046;-79
2024/01/26 04:00:16;;;;;;;27.95;17.90;;;9.80;99.90;;;;;;5006312;28;20152;-79
2024/01/26 04:02:42;;;;;;;30.40;18.27;;;9.80;99.90;;;;;;5007477;28;20041;-79
2024/01/26 04:05:08;;;;;;;31.67;17.98;;;9.90;99.90;;;;;;5008520;28;20053;-79
2024/01/26 04:07:35;;;;;;;31.55;18.23;;;9.90;99.90;;;;;;5008183;28;20044;-78
2024/01/26 04:10:03;;;;;;;30.48;17.98;;;9.90;99.90;;;;;;5003394;28;20223;-79
2024/01/26 04:12:29;;;;;;;27.70;16.92;;;9.90;99.90;;;;;;5010784;28;20045;-79
2024/01/26 04:14:54;;;;;;;34.70;17.80;;;9.90;99.90;;;;;;5009703;28;20038;-79
2024/01/26 04:17:20;;;;;;;29.17;17.10;;;9.90;99.90;;;;;;5006170;28;20050;-79
2024/01/26 04:19:46;;;;;;;28.27;17.50;;;9.90;99.90;;;;;;5002478;28;21487;-79
2024/01/26 04:22:11;;;;;;;28.40;17.50;;;9.90;99.90;;;;;;5011657;28;20065;-79
2024/01/26 04:24:37;;;;;;;29.83;17.73;;;10.00;99.90;;;;;;5013287;28;20042;-79
2024/01/26 04:27:03;;;;;;;31.77;18.50;;;10.00;99.90;;;;;;5015152;28;20670;-79
2024/01/26 04:29:28;;;;;;;33.25;19.08;;;10.00;99.90;;;;;;5011022;28;20042;-79
2024/01/26 04:31:54;;;;;;;31.73;18.27;;;10.00;99.90;;;;;;5014244;28;20132;-79
2024/01/26 04:34:19;;;;;;;29.35;18.33;;;10.00;99.90;;;;;;5013655;28;20052;-79
2024/01/26 04:36:47;;;;;;;32.50;19.65;;;10.00;99.90;;;;;;5005233;28;20045;-79
2024/01/26 04:39:13;;;;;;;37.25;20.33;;;10.10;99.90;;;;;;5008190;28;20050;-78
2024/01/26 04:41:39;;;;;;;34.67;20.27;;;10.10;99.90;;;;;;5012404;28;20509;-79
2024/01/26 04:44:06;;;;;;;33.42;19.48;;;10.10;99.90;;;;;;5014665;28;20116;-79
2024/01/26 04:46:31;;;;;;;33.67;20.33;;;10.10;99.90;;;;;;5009232;28;20046;-79
2024/01/26 04:48:57;;;;;;;37.97;21.10;;;10.10;99.90;;;;;;5011834;28;20204;-80
2024/01/26 04:51:22;;;;;;;36.35;21.17;;;10.20;99.90;;;;;;5011640;28;20057;-79
2024/01/26 04:53:48;;;;;;;36.17;21.00;;;10.10;99.90;;;;;;5008235;28;20033;-79
2024/01/26 04:56:14;;;;;;;36.20;21.08;;;10.20;99.90;;;;;;5008297;28;20050;-79
2024/01/26 04:58:40;;;;;;;34.95;21.23;;;10.20;99.90;;;;;;5010928;28;20056;-79
2024/01/26 05:01:06;;;;;;;32.20;21.33;;;10.20;99.90;;;;;;5003570;28;20084;-79
2024/01/26 05:03:32;;;;;;;31.65;20.58;;;10.20;99.90;;;;;;5011765;28;20049;-79
2024/01/26 05:05:58;;;;;;;33.55;20.05;;;10.20;99.90;;;;;;5006960;28;20400;-79
2024/01/26 05:08:23;;;;;;;31.00;19.73;;;10.30;99.90;;;;;;5007890;28;20053;-79
2024/01/26 05:10:49;;;;;;;32.15;20.02;;;10.30;99.90;;;;;;5009642;28;20491;-79
2024/01/26 05:13:15;;;;;;;31.42;19.75;;;10.30;99.90;;;;;;5011062;28;20526;-79
2024/01/26 05:15:41;;;;;;;31.75;19.05;;;10.30;99.90;;;;;;5010105;28;20084;-79
2024/01/26 05:18:08;;;;;;;31.35;19.15;;;10.30;99.90;;;;;;4999070;28;20070;-79
2024/01/26 05:20:33;;;;;;;36.38;21.58;;;10.30;99.90;;;;;;5008167;28;20046;-79
2024/01/26 05:22:59;;;;;;;32.42;20.17;;;10.30;99.90;;;;;;5010678;28;20034;-79
2024/01/26 05:25:25;;;;;;;28.58;19.25;;;10.30;99.90;;;;;;5010665;28;20037;-79
2024/01/26 05:27:50;;;;;;;34.63;19.95;;;10.30;99.90;;;;;;5007763;28;20042;-79
2024/01/26 05:30:16;;;;;;;29.83;18.30;;;10.30;99.90;;;;;;4998721;28;20104;-79
2024/01/26 05:32:43;;;;;;;38.65;19.55;;;10.30;99.90;;;;;;4991050;28;20045;-78
2024/01/26 05:35:09;;;;;;;29.80;19.63;;;10.40;99.90;;;;;;5004302;28;20054;-79
2024/01/26 05:37:35;;;;;;;28.63;18.90;;;10.40;99.90;;;;;;5009817;28;20049;-78
2024/01/26 05:40:05;;;;;;;32.55;18.98;;;10.40;99.90;;;;;;5002552;28;20053;-78
2024/01/26 05:42:31;;;;;;;29.98;18.80;;;10.40;99.90;;;;;;4999942;28;20046;-78
2024/01/26 05:44:56;;;;;;;28.67;19.38;;;10.40;99.90;;;;;;5007297;28;20064;-78
2024/01/26 05:47:22;;;;;;;27.92;19.30;;;10.40;99.90;;;;;;5006837;28;20046;-78
2024/01/26 05:49:50;;;;;;;33.20;19.52;;;10.40;99.90;;;;;;5007233;28;20029;-78
2024/01/26 05:52:16;;;;;;;30.23;18.55;;;10.40;99.90;;;;;;5004089;28;20050;-78
2024/01/26 05:54:41;;;;;;;30.30;18.55;;;10.40;99.90;;;;;;5010367;28;20046;-78
2024/01/26 05:57:07;;;;;;;28.48;18.75;;;10.40;99.90;;;;;;5007350;28;20049;-78
2024/01/26 05:59:32;;;;;;;30.52;19.13;;;10.40;99.90;;;;;;5002473;28;20096;-78
2024/01/26 06:01:58;;;;;;;26.00;18.20;;;10.40;99.90;;;;;;5004315;28;20049;-78
2024/01/26 06:04:23;;;;;;;29.73;18.42;;;10.40;99.90;;;;;;5009930;28;20037;-78
2024/01/26 06:06:49;;;;;;;31.27;18.52;;;10.40;99.90;;;;;;5009032;28;20092;-78
2024/01/26 06:09:15;;;;;;;28.65;17.88;;;10.50;99.90;;;;;;5006129;28;20420;-77
2024/01/26 06:11:43;;;;;;;29.10;18.05;;;10.50;99.90;;;;;;5009432;28;20080;-78
2024/01/26 06:14:08;;;;;;;30.75;17.13;;;10.50;99.90;;;;;;5009738;28;20046;-78
2024/01/26 06:16:34;;;;;;;26.48;16.58;;;10.50;99.90;;;;;;5009761;28;20053;-77
2024/01/26 06:18:59;;;;;;;25.73;15.52;;;10.50;99.90;;;;;;5002791;28;20597;-77
2024/01/26 06:21:25;;;;;;;25.10;14.98;;;10.50;99.90;;;;;;5010020;28;20510;-77
2024/01/26 06:23:51;;;;;;;22.60;15.25;;;10.50;99.90;;;;;;5010191;28;20085;-77
2024/01/26 06:26:16;;;;;;;24.95;14.60;;;10.50;99.90;;;;;;5002273;28;20062;-78
2024/01/26 06:28:42;;;;;;;23.15;14.75;;;10.50;99.90;;;;;;5007822;28;20442;-77
2024/01/26 06:31:07;;;;;;;21.65;13.85;;;10.50;99.90;;;;;;5008582;28;20041;-77
2024/01/26 06:33:33;;;;;;;23.02;12.52;;;10.60;99.90;;;;;;5004231;28;20045;-79
2024/01/26 06:35:58;;;;;;;22.20;13.55;;;10.70;99.90;;;;;;5010579;28;20156;-78
2024/01/26 06:38:24;;;;;;;21.85;13.48;;;10.60;99.90;;;;;;5004702;28;20078;-77
2024/01/26 06:40:50;;;;;;;22.88;13.90;;;10.60;99.90;;;;;;5008963;28;20038;-76
2024/01/26 06:43:16;;;;;;;20.35;12.88;;;10.60;99.90;;;;;;5008959;28;20045;-76
2024/01/26 06:45:43;;;;;;;18.17;11.55;;;10.60;99.90;;;;;;5008348;28;20451;-76
2024/01/26 06:48:08;;;;;;;20.48;12.35;;;10.60;99.90;;;;;;5005362;28;20054;-77
2024/01/26 06:50:34;;;;;;;19.73;12.70;;;10.60;99.90;;;;;;5005338;28;20057;-77
2024/01/26 06:53:00;;;;;;;18.60;11.98;;;10.60;99.90;;;;;;5015437;28;20069;-77
2024/01/26 06:55:25;;;;;;;17.40;12.52;;;10.60;99.90;;;;;;5001709;28;20065;-76
2024/01/26 06:57:51;;;;;;;22.88;11.98;;;10.60;99.90;;;;;;5002374;28;20512;-76
2024/01/26 07:00:17;;;;;;;18.83;11.35;;;10.60;99.90;;;;;;5009682;28;20053;-76
2024/01/26 07:02:43;;;;;;;17.98;10.85;;;10.70;99.90;;;;;;5001876;28;20088;-76
2024/01/26 07:05:08;;;;;;;21.55;11.50;;;10.60;99.90;;;;;;5004749;28;20454;-75
2024/01/26 07:07:34;;;;;;;19.42;11.23;;;10.60;99.90;;;;;;4991371;28;20125;-76
2024/01/26 07:09:59;;;;;;;18.58;10.85;;;10.70;99.90;;;;;;5006096;28;20030;-76
2024/01/26 07:12:25;;;;;;;16.60;10.23;;;10.60;99.90;;;;;;5006190;28;20079;-76
2024/01/26 07:14:50;;;;;;;17.42;10.48;;;10.60;99.90;;;;;;5009270;28;20106;-75
2024/01/26 07:17:17;;;;;;;17.70;10.77;;;10.60;99.90;;;;;;5002891;28;20400;-76
2024/01/26 07:19:42;;;;;;;20.25;11.07;;;10.60;99.90;;;;;;5003659;28;20046;-76
2024/01/26 07:22:08;;;;;;;14.00;9.63;;;10.60;99.90;;;;;;5009470;28;20056;-77
2024/01/26 07:24:33;;;;;;;15.80;10.50;;;10.60;99.90;;;;;;5006712;28;20034;-76
2024/01/26 07:26:59;;;;;;;15.25;9.70;;;10.60;99.90;;;;;;5005881;28;20550;-77
2024/01/26 07:29:25;;;;;;;16.13;9.88;;;10.60;99.90;;;;;;5002120;28;20095;-76
2024/01/26 07:31:50;;;;;;;17.60;9.55;;;10.60;99.90;;;;;;5005459;28;20037;-76
2024/01/26 07:34:16;;;;;;;13.57;8.90;;;10.60;99.90;;;;;;5000278;28;20038;-77
2024/01/26 07:36:42;;;;;;;17.20;8.93;;;10.60;99.90;;;;;;4997281;28;20037;-76
2024/01/26 07:39:08;;;;;;;14.65;8.80;;;10.60;99.90;;;;;;5005499;28;20136;-76
2024/01/26 07:41:33;;;;;;;13.13;8.50;;;10.60;99.90;;;;;;4999726;28;20121;-75
2024/01/26 07:44:00;;;;;;;12.88;8.52;;;10.60;99.90;;;;;;4998991;28;20046;-76
2024/01/26 07:46:25;;;;;;;13.10;8.55;;;10.60;99.90;;;;;;4997565;28;20511;-77
2024/01/26 07:48:51;;;;;;;12.93;8.05;;;10.60;99.90;;;;;;5001570;28;20083;-76
2024/01/26 07:51:17;;;;;;;12.95;8.32;;;10.60;99.90;;;;;;5003491;28;20046;-76
2024/01/26 07:53:42;;;;;;;13.07;7.63;;;10.60;99.90;;;;;;5007928;28;20045;-76
2024/01/26 07:56:08;;;;;;;13.80;7.85;;;10.60;99.90;;;;;;5005661;28;20033;-75
2024/01/26 07:58:33;;;;;;;12.57;6.97;;;10.60;99.90;;;;;;5010943;28;20506;-76
2024/01/26 08:00:59;;;;;;;10.55;6.88;;;10.60;99.90;;;;;;5006128;28;20475;-76
2024/01/26 08:03:24;;;;;;;13.70;7.70;;;10.60;99.90;;;;;;5006240;28;20165;-76
2024/01/26 08:05:50;;;;;;;10.35;6.78;;;10.70;99.90;;;;;;5005025;28;20038;-75
2024/01/26 08:08:15;;;;;;;10.43;6.70;;;10.70;99.90;;;;;;5004199;28;20082;-77
2024/01/26 08:10:41;;;;;;;11.88;6.65;;;10.70;99.90;;;;;;5003569;28;20046;-77
2024/01/26 08:13:07;;;;;;;11.68;6.90;;;10.70;99.90;;;;;;5010809;28;20045;-76
2024/01/26 08:15:32;;;;;;;9.52;6.78;;;10.70;99.90;;;;;;5010323;28;20049;-76
2024/01/26 08:17:58;;;;;;;9.30;7.13;;;10.80;99.90;;;;;;5001913;28;20046;-76
2024/01/26 08:20:23;;;;;;;11.10;6.65;;;10.80;99.90;;;;;;5007717;28;20052;-77
2024/01/26 08:22:49;;;;;;;11.70;7.53;;;10.80;99.90;;;;;;5005533;28;20042;-78
2024/01/26 08:25:15;;;;;;;12.75;8.40;;;10.90;99.90;;;;;;5009794;28;20541;-76
2024/01/26 08:27:40;;;;;;;12.05;8.02;;;10.90;99.90;;;;;;5011485;28;20541;-78
2024/01/26 08:30:06;;;;;;;10.77;7.90;;;10.90;99.90;;;;;;4996544;28;20601;-77
2024/01/26 08:32:32;;;;;;;11.18;8.10;;;10.90;99.90;;;;;;4998506;28;20070;-77
2024/01/26 08:34:58;;;;;;;11.27;7.63;;;11.00;99.90;;;;;;5009120;28;20069;-77
2024/01/26 08:37:23;;;;;;;11.98;8.65;;;11.00;99.90;;;;;;5008393;28;20030;-77
2024/01/26 08:39:49;;;;;;;13.95;9.65;;;11.00;99.90;;;;;;5006223;28;20040;-77
2024/01/26 08:42:15;;;;;;;14.93;9.18;;;11.00;99.90;;;;;;5006311;28;20780;-77
2024/01/26 08:44:40;;;;;;;15.48;10.75;;;12.00;99.90;;;;;;5007749;28;20455;-77
2024/01/26 08:47:06;;;;;;;16.67;10.35;;;11.00;99.90;;;;;;5011359;28;20797;-76
2024/01/26 08:49:32;;;;;;;17.23;11.13;;;11.00;99.90;;;;;;5009995;28;20072;-77
2024/01/26 08:51:58;;;;;;;17.75;12.05;;;11.00;99.90;;;;;;5007618;28;20046;-76
2024/01/26 08:54:24;;;;;;;17.40;12.10;;;11.00;99.90;;;;;;5011747;28;20057;-78
2024/01/26 08:56:50;;;;;;;18.90;12.50;;;11.30;99.90;;;;;;5011238;28;20445;-78
2024/01/26 08:59:16;;;;;;;20.25;13.40;;;10.90;99.90;;;;;;5007101;28;20084;-78
2024/01/26 09:01:41;;;;;;;21.48;13.20;;;10.90;99.90;;;;;;5004827;28;20033;-77
2024/01/26 09:04:08;;;;;;;20.17;13.55;;;10.90;99.90;;;;;;4993645;28;20057;-77
2024/01/26 09:06:34;;;;;;;20.08;13.05;;;10.90;99.90;;;;;;5009107;28;20057;-77
2024/01/26 09:09:00;;;;;;;22.30;14.18;;;11.00;99.90;;;;;;5004194;28;20053;-77
2024/01/26 09:11:26;;;;;;;19.08;12.77;;;10.90;99.90;;;;;;5001776;28;20045;-76
2024/01/26 09:13:52;;;;;;;20.67;13.65;;;11.00;99.90;;;;;;5010013;28;20034;-76
2024/01/26 09:16:17;;;;;;;20.20;13.52;;;11.00;99.90;;;;;;5006084;28;20109;-76
2024/01/26 09:18:43;;;;;;;18.25;11.85;;;11.00;99.90;;;;;;5009259;28;20407;-76
2024/01/26 09:21:11;;;;;;;17.42;11.18;;;11.10;99.90;;;;;;5011792;28;20124;-76
2024/01/26 09:23:38;;;;;;;17.35;10.98;;;11.10;99.90;;;;;;5009397;28;20045;-76
2024/01/26 09:26:04;;;;;;;10.15;5.13;;;11.10;99.90;;;;;;5006093;28;20165;-76
2024/01/26 09:28:29;;;;;;;9.55;3.22;;;11.10;99.90;;;;;;5008568;28;20466;-76
2024/01/26 09:30:55;;;;;;;8.57;2.33;;;11.10;99.90;;;;;;5004301;28;20046;-76
2024/01/26 09:33:21;;;;;;;3.55;1.02;;;11.00;99.90;;;;;;5004306;28;20491;-74
2024/01/26 09:35:47;;;;;;;2.72;1.00;;;10.80;99.90;;;;;;5001082;28;20042;-76
2024/01/26 09:38:13;;;;;;;2.22;0.98;;;10.60;99.90;;;;;;5008067;28;20045;-76
2024/01/26 09:40:39;;;;;;;1.35;0.65;;;10.30;99.90;;;;;;5010754;28;20038;-75
2024/01/26 09:43:06;;;;;;;3.85;0.90;;;10.10;99.90;;;;;;5007167;28;20049;-76
2024/01/26 09:45:32;;;;;;;3.65;0.73;;;9.90;99.90;;;;;;5009916;28;20555;-76
2024/01/26 09:47:58;;;;;;;3.90;0.60;;;9.80;99.90;;;;;;5009450;28;20133;-76
2024/01/26 09:50:25;;;;;;;2.88;0.70;;;9.70;99.90;;;;;;5004915;28;20084;-76
2024/01/26 09:52:52;;;;;;;4.65;1.42;;;9.50;99.90;;;;;;5005959;28;20042;-76
2024/01/26 09:55:19;;;;;;;3.45;0.77;;;9.50;99.90;;;;;;5010157;28;20069;-77
2024/01/26 09:57:47;;;;;;;3.35;0.80;;;9.40;99.90;;;;;;5010644;28;20631;-76
2024/01/26 10:00:13;;;;;;;5.25;1.02;;;9.40;99.90;;;;;;5006705;28;20073;-76
2024/01/26 10:02:41;;;;;;;4.90;1.05;;;9.30;99.90;;;;;;5005262;28;20033;-76
2024/01/26 10:05:07;;;;;;;5.20;1.00;;;9.30;99.90;;;;;;5009836;28;20072;-76
2024/01/26 10:07:33;;;;;;;5.07;1.10;;;9.20;99.90;;;;;;5009466;28;20606;-77
2024/01/26 10:09:58;;;;;;;9.65;1.50;;;9.20;99.90;;;;;;5009593;28;20056;-76
2024/01/26 10:12:24;;;;;;;5.25;0.82;;;9.10;99.90;;;;;;5006298;28;20050;-76
2024/01/26 10:15:00;;;;;;;7.63;1.48;;;9.10;99.90;;;;;;5003164;28;20052;-77
2024/01/26 10:17:25;;;;;;;9.80;2.35;;;9.10;99.90;;;;;;5006084;28;20688;-76
2024/01/26 10:19:51;;;;;;;15.18;2.25;;;9.10;99.90;;;;;;5008797;28;20080;-77
2024/01/26 10:22:17;;;;;;;9.48;1.80;;;9.10;99.90;;;;;;5009653;28;20492;-76
2024/01/26 10:24:43;;;;;;;8.60;1.67;;;9.10;99.90;;;;;;5008586;28;20038;-79
2024/01/26 10:27:09;;;;;;;14.10;2.45;;;9.00;99.90;;;;;;5009036;28;20612;-77
2024/01/26 10:29:37;;;;;;;10.30;2.03;;;9.00;99.90;;;;;;5009336;28;20070;-77
2024/01/26 10:32:08;;;;;;;13.07;2.05;;;9.00;99.90;;;;;;5005287;28;20050;-78
2024/01/26 10:34:35;;;;;;;19.13;3.00;;;9.00;99.90;;;;;;4994684;28;20050;-78
2024/01/26 10:37:07;;;;;;;15.95;2.55;;;9.00;99.90;;;;;;5004119;28;20109;-77
2024/01/26 10:39:38;;;;;;;13.40;2.43;;;9.00;99.90;;;;;;5009166;28;20181;-78
2024/01/26 10:42:04;;;;;;;15.95;2.40;;;9.00;99.90;;;;;;4998724;28;20495;-77
2024/01/26 10:44:33;;;;;;;18.52;3.13;;;9.10;99.90;;;;;;5000820;28;20052;-79
2024/01/26 10:47:00;;;;;;;19.85;2.70;;;9.10;99.90;;;;;;5002671;28;20161;-78
2024/01/26 10:49:27;;;;;;;15.88;3.45;;;9.10;99.90;;;;;;5010348;28;20041;-78
2024/01/26 10:51:54;;;;;;;18.35;3.38;;;9.10;99.90;;;;;;5002806;28;20033;-78
2024/01/26 10:54:25;;;;;;;14.18;2.58;;;9.10;99.90;;;;;;5018351;28;20056;-79
2024/01/26 10:56:50;;;;;;;18.63;2.97;;;9.10;99.90;;;;;;5007089;28;20100;-79
2024/01/26 10:59:17;;;;;;;12.50;2.67;;;9.10;99.90;;;;;;4998365;28;20082;-80
2024/01/26 11:01:44;;;;;;;20.23;3.05;;;9.10;99.90;;;;;;5007925;28;20490;-78
2024/01/26 11:04:12;;;;;;;16.17;3.53;;;9.10;99.90;;;;;;5007445;28;20044;-78
2024/01/26 11:06:39;;;;;;;16.55;2.78;;;9.00;99.90;;;;;;5004348;28;20422;-79
2024/01/26 11:09:08;;;;;;;16.27;3.22;;;9.00;99.90;;;;;;5000635;28;20126;-78
2024/01/26 11:11:35;;;;;;;20.30;3.00;;;9.00;99.90;;;;;;4982991;28;20046;-78
2024/01/26 11:14:02;;;;;;;17.35;3.05;;;8.90;99.90;;;;;;4998950;28;20041;-79
2024/01/26 11:16:35;;;;;;;25.20;4.10;;;8.90;99.90;;;;;;5006673;28;20081;-78
2024/01/26 11:19:01;;;;;;;15.68;2.60;;;8.90;99.90;;;;;;4998732;28;20049;-79
2024/01/26 11:21:41;;;;;;;15.27;2.95;;;8.80;99.90;;;;;;5012574;28;20053;-79
2024/01/26 11:24:13;;;;;;;19.48;3.78;;;8.80;99.90;;;;;;5008751;28;20518;-79
2024/01/26 11:26:38;;;;;;;19.83;3.47;;;9.30;99.90;;;;;;5004165;28;20045;-79
2024/01/26 11:29:14;;;;;;;13.40;2.90;;;8.80;99.90;;;;;;5007160;28;20057;-78
2024/01/26 11:31:43;;;;;;;20.13;3.50;;;8.80;99.90;;;;;;4995013;28;20400;-79
2024/01/26 11:34:22;;;;;;;20.58;3.15;;;8.80;99.90;;;;;;4986759;28;20046;-78
2024/01/26 11:36:48;;;;;;;15.90;3.05;;;8.80;99.90;;;;;;5000461;28;20077;-79
2024/01/26 11:39:16;;;;;;;19.13;3.08;;;8.70;99.90;;;;;;5003012;28;20081;-79
2024/01/26 11:41:45;;;;;;;21.77;3.50;;;8.70;99.90;;;;;;5006378;28;20041;-79
2024/01/26 11:44:23;;;;;;;21.67;3.10;;;8.70;99.90;;;;;;4998944;28;20038;-78
2024/01/26 11:46:49;;;;;;;19.52;3.53;;;8.60;99.90;;;;;;5000605;28;20521;-78
2024/01/26 11:49:15;;;;;;;17.50;3.13;;;8.60;99.90;;;;;;5000641;28;20034;-78
2024/01/26 11:51:40;;;;;;;16.75;4.30;;;8.60;99.90;;;;;;5000797;28;20128;-78
2024/01/26 11:54:06;;;;;;;20.90;3.78;;;8.60;99.90;;;;;;5008432;28;20053;-78
2024/01/26 11:56:32;;;;;;;18.55;3.50;;;8.60;99.90;;;;;;5007204;28;20049;-78
2024/01/26 11:58:59;;;;;;;20.25;3.50;;;8.50;99.90;;;;;;5009302;28;20125;-78
2024/01/26 12:01:25;;;;;;;21.52;3.63;;;8.50;99.90;;;;;;5003548;28;20053;-78
2024/01/26 12:03:51;;;;;;;20.60;3.50;;;8.50;99.90;;;;;;5008284;28;20048;-78
2024/01/26 12:06:16;;;;;;;17.83;3.33;;;8.50;99.90;;;;;;5008054;28;20078;-78
2024/01/26 12:08:42;;;;;;;26.02;3.28;;;8.50;99.90;;;;;;5008680;28;20451;-78
2024/01/26 12:11:10;;;;;;;24.77;3.75;;;8.40;99.90;;;;;;5009283;28;20080;-78
2024/01/26 12:13:36;;;;;;;17.00;3.10;;;8.40;99.90;;;;;;5006661;28;20495;-78
2024/01/26 12:16:03;;;;;;;17.48;2.78;;;8.40;99.90;;;;;;5010402;28;20046;-78
2024/01/26 12:18:29;;;;;;;19.80;3.83;;;8.40;99.90;;;;;;5003857;28;20054;-77
2024/01/26 12:20:56;;;;;;;20.70;2.75;;;8.40;99.90;;;;;;5008033;28;20185;-78
2024/01/26 12:23:21;;;;;;;18.27;3.38;;;8.40;99.90;;;;;;5004813;28;20065;-77
2024/01/26 12:25:51;;;;;;;19.65;3.60;;;8.30;99.90;;;;;;5001997;28;20416;-78
2024/01/26 12:28:17;;;;;;;18.60;3.50;;;8.40;99.90;;;;;;5008098;28;20043;-78
2024/01/26 12:30:46;;;;;;;27.48;3.85;;;8.40;99.90;;;;;;5007071;28;20045;-77